Time;durP1;ratioP1;P1;durP2;ratioP2;P2;SDS_P1;SDS_P2;PMS_P1;PMS_P2;Temp;Humidity;BMP_temperature;BMP_pressure;BME280_temperature;BME280_humidity;BME280_pressure;Samples;Min_cycle;Max_cycle;Signal;HPM_P1;HPM_P2
2021/04/27 00:00:17;;;;;;;2.38;2.17;;;;;;;;;;4971835;28;20030;-44
2021/04/27 00:02:42;;;;;;;6.60;3.75;;;;;;;;;;4971147;28;20108;-46
2021/04/27 00:05:10;;;;;;;6.13;4.03;;;;;;;;;;4970468;28;20396;-47
2021/04/27 00:07:35;;;;;;;6.95;3.67;;;;;;;;;;4968057;28;20053;-44
2021/04/27 00:10:01;;;;;;;6.63;4.10;;;;;;;;;;4970814;28;20034;-44
2021/04/27 00:12:26;;;;;;;4.10;2.78;;;;;;;;;;4971623;28;20074;-44
2021/04/27 00:14:54;;;;;;;6.95;4.70;;;;;;;;;;4971220;28;20417;-48
2021/04/27 00:17:20;;;;;;;4.95;3.30;;;;;;;;;;4969992;28;20038;-44
2021/04/27 00:19:46;;;;;;;6.00;3.78;;;;;;;;;;4973435;28;20066;-43
2021/04/27 00:22:11;;;;;;;7.40;4.65;;;;;;;;;;4976118;28;20486;-48
2021/04/27 00:24:37;;;;;;;6.60;3.95;;;;;;;;;;4972130;28;20034;-48
2021/04/27 00:27:02;;;;;;;7.50;3.65;;;;;;;;;;4971412;28;20034;-47
2021/04/27 00:29:28;;;;;;;8.27;4.20;;;;;;;;;;4971216;28;20093;-46
2021/04/27 00:31:54;;;;;;;5.63;4.20;;;;;;;;;;4968590;28;20035;-49
2021/04/27 00:34:19;;;;;;;5.50;3.17;;;;;;;;;;4971097;28;20093;-46
2021/04/27 00:36:44;;;;;;;7.43;3.65;;;;;;;;;;4970699;28;20023;-47
2021/04/27 00:39:10;;;;;;;6.65;4.07;;;;;;;;;;4969975;28;20459;-45
2021/04/27 00:41:35;;;;;;;6.65;4.20;;;;;;;;;;4969542;28;20061;-45
2021/04/27 00:44:00;;;;;;;8.25;5.72;;;;;;;;;;4971943;28;20421;-46
2021/04/27 00:46:26;;;;;;;9.13;5.78;;;;;;;;;;4971542;28;20030;-46
2021/04/27 00:48:51;;;;;;;7.18;4.63;;;;;;;;;;4969872;28;20452;-45
2021/04/27 00:51:17;;;;;;;7.50;4.55;;;;;;;;;;4970260;28;20039;-45
2021/04/27 00:53:43;;;;;;;5.53;4.22;;;;;;;;;;4969139;28;20022;-46
2021/04/27 00:56:08;;;;;;;7.72;4.35;;;;;;;;;;4974408;28;20034;-46
2021/04/27 00:58:33;;;;;;;6.65;5.25;;;;;;;;;;4977510;28;20023;-46
2021/04/27 01:00:59;;;;;;;16.27;6.88;;;;;;;;;;4972020;28;20034;-46
2021/04/27 01:03:24;;;;;;;7.90;5.65;;;;;;;;;;4969419;28;20046;-49
2021/04/27 01:05:50;;;;;;;5.57;4.63;;;;;;;;;;4970823;28;20038;-45
2021/04/27 01:08:17;;;;;;;6.05;4.10;;;;;;;;;;4969069;28;20099;-48
2021/04/27 01:10:45;;;;;;;4.78;3.05;;;;;;;;;;4971407;28;20034;-46
2021/04/27 01:13:31;;;;;;;9.38;3.78;;;;;;;;;;4973713;28;20030;-46
2021/04/27 01:15:58;;;;;;;5.50;4.03;;;;;;;;;;4970256;28;20070;-46
2021/04/27 01:18:25;;;;;;;4.90;3.72;;;;;;;;;;4972989;28;20027;-46
2021/04/27 01:20:51;;;;;;;10.80;4.28;;;;;;;;;;4971565;28;20046;-47
2021/04/27 01:23:31;;;;;;;5.07;3.05;;;;;;;;;;4971520;28;20049;-48
2021/04/27 01:25:56;;;;;;;5.10;3.47;;;;;;;;;;4967460;28;20064;-47
2021/04/27 01:28:23;;;;;;;5.78;2.72;;;;;;;;;;4970340;28;20058;-50
2021/04/27 01:30:49;;;;;;;7.63;3.30;;;;;;;;;;4970860;28;20109;-49
2021/04/27 01:33:16;;;;;;;6.78;4.68;;;;;;;;;;4972388;28;20449;-47
2021/04/27 01:35:42;;;;;;;5.35;4.57;;;;;;;;;;4971754;28;20514;-45
2021/04/27 01:38:08;;;;;;;11.10;4.53;;;;;;;;;;4971486;28;20031;-48
2021/04/27 01:40:33;;;;;;;8.32;5.40;;;;;;;;;;4970529;28;20050;-46
2021/04/27 01:43:00;;;;;;;4.40;3.50;;;;;;;;;;4969129;28;20058;-47
2021/04/27 01:45:27;;;;;;;5.35;4.00;;;;;;;;;;4969489;28;20041;-45
2021/04/27 01:47:54;;;;;;;10.77;4.93;;;;;;;;;;4968180;28;20055;-46
2021/04/27 01:50:22;;;;;;;5.38;3.53;;;;;;;;;;4972714;28;20129;-46
2021/04/27 01:52:49;;;;;;;5.75;2.85;;;;;;;;;;4970003;28;20037;-46
2021/04/27 01:55:15;;;;;;;4.90;3.25;;;;;;;;;;4968513;28;20023;-44
2021/04/27 01:57:40;;;;;;;7.38;4.80;;;;;;;;;;4968852;28;20027;-45
2021/04/27 02:00:07;;;;;;;13.63;9.50;;;;;;;;;;4969633;28;20037;-47
2021/04/27 02:02:33;;;;;;;16.70;8.90;;;;;;;;;;4969626;28;20166;-46
2021/04/27 02:04:58;;;;;;;13.23;7.25;;;;;;;;;;4971482;28;20537;-47
2021/04/27 02:07:23;;;;;;;10.68;5.97;;;;;;;;;;4968551;28;20035;-47
2021/04/27 02:09:49;;;;;;;11.07;6.25;;;;;;;;;;4971934;28;20770;-45
2021/04/27 02:12:15;;;;;;;8.48;4.80;;;;;;;;;;4975023;28;20478;-46
2021/04/27 02:14:42;;;;;;;8.90;5.63;;;;;;;;;;4973567;28;20579;-47
2021/04/27 02:17:22;;;;;;;16.17;8.05;;;;;;;;;;4971977;28;20101;-45
2021/04/27 02:19:47;;;;;;;8.23;4.22;;;;;;;;;;4970963;28;20032;-47
2021/04/27 02:22:12;;;;;;;8.00;4.90;;;;;;;;;;4971497;28;20077;-45
2021/04/27 02:24:38;;;;;;;5.07;2.80;;;;;;;;;;4973704;28;20034;-48
2021/04/27 02:27:04;;;;;;;4.75;3.28;;;;;;;;;;4973713;28;20081;-46
2021/04/27 02:29:30;;;;;;;6.50;3.70;;;;;;;;;;4971949;28;20089;-47
2021/04/27 02:31:56;;;;;;;4.00;2.85;;;;;;;;;;4972228;28;20487;-46
2021/04/27 02:34:23;;;;;;;3.58;2.60;;;;;;;;;;4971925;28;20121;-46
2021/04/27 02:36:48;;;;;;;4.97;3.45;;;;;;;;;;4970863;28;20538;-47
2021/04/27 02:39:14;;;;;;;4.22;2.75;;;;;;;;;;4972725;28;20027;-50
2021/04/27 02:41:40;;;;;;;8.80;3.45;;;;;;;;;;4977488;28;20023;-47
2021/04/27 02:44:08;;;;;;;4.28;3.65;;;;;;;;;;4972303;28;20030;-45
2021/04/27 02:46:34;;;;;;;8.93;3.97;;;;;;;;;;4971022;28;20023;-47
2021/04/27 02:48:59;;;;;;;8.88;3.53;;;;;;;;;;4973703;28;20023;-48
2021/04/27 02:51:25;;;;;;;5.28;3.97;;;;;;;;;;4971264;28;20033;-46
2021/04/27 02:53:50;;;;;;;6.47;3.63;;;;;;;;;;4971893;28;20072;-46
2021/04/27 02:56:16;;;;;;;7.32;3.55;;;;;;;;;;4971597;28;20422;-46
2021/04/27 02:58:41;;;;;;;8.35;3.42;;;;;;;;;;4971804;28;20022;-48
2021/04/27 03:01:07;;;;;;;6.30;4.40;;;;;;;;;;4971720;28;20019;-47
2021/04/27 03:03:33;;;;;;;5.25;4.07;;;;;;;;;;4973680;28;20471;-47
2021/04/27 03:05:58;;;;;;;6.40;3.55;;;;;;;;;;4970767;28;20027;-49
2021/04/27 03:08:24;;;;;;;11.57;4.13;;;;;;;;;;4970396;28;20058;-48
2021/04/27 03:10:51;;;;;;;6.43;5.07;;;;;;;;;;4971592;28;20106;-45
2021/04/27 03:13:17;;;;;;;8.55;5.32;;;;;;;;;;4973588;28;20056;-45
2021/04/27 03:15:42;;;;;;;6.10;4.05;;;;;;;;;;4968539;28;20483;-47
2021/04/27 03:18:08;;;;;;;8.60;4.07;;;;;;;;;;4972862;28;20093;-48
2021/04/27 03:20:33;;;;;;;5.13;3.03;;;;;;;;;;4972974;28;20484;-45
2021/04/27 03:22:58;;;;;;;4.57;3.63;;;;;;;;;;4971431;28;20067;-45
2021/04/27 03:25:23;;;;;;;6.07;4.35;;;;;;;;;;4970801;28;20066;-48
2021/04/27 03:27:49;;;;;;;22.45;8.10;;;;;;;;;;4972083;28;20038;-50
2021/04/27 03:30:15;;;;;;;10.25;6.13;;;;;;;;;;4972841;28;20546;-48
2021/04/27 03:32:40;;;;;;;8.30;4.88;;;;;;;;;;4972269;28;20347;-46
2021/04/27 03:35:07;;;;;;;8.95;5.20;;;;;;;;;;4971284;28;20027;-49
2021/04/27 03:37:32;;;;;;;8.68;4.57;;;;;;;;;;4973022;28;20023;-47
2021/04/27 03:40:00;;;;;;;8.80;4.88;;;;;;;;;;4972773;28;20033;-46
2021/04/27 03:42:26;;;;;;;8.85;6.63;;;;;;;;;;4972024;28;20057;-47
2021/04/27 03:44:51;;;;;;;7.82;4.97;;;;;;;;;;4970969;28;20058;-47
2021/04/27 03:47:17;;;;;;;4.80;4.28;;;;;;;;;;4970307;28;20037;-47
2021/04/27 03:49:42;;;;;;;12.98;5.40;;;;;;;;;;4962282;28;20026;-44
2021/04/27 03:52:08;;;;;;;6.07;4.18;;;;;;;;;;4972271;28;20547;-46
2021/04/27 03:54:36;;;;;;;13.75;4.65;;;;;;;;;;4975156;28;20530;-46
2021/04/27 03:57:04;;;;;;;10.85;4.70;;;;;;;;;;4971290;28;20026;-46
2021/04/27 03:59:30;;;;;;;6.93;5.03;;;;;;;;;;4971005;28;20134;-48
2021/04/27 04:01:55;;;;;;;6.45;4.28;;;;;;;;;;4969583;28;20530;-46
2021/04/27 04:04:21;;;;;;;8.15;6.03;;;;;;;;;;4971199;28;20061;-45
2021/04/27 04:06:46;;;;;;;10.95;4.28;;;;;;;;;;4971656;28;20021;-47
2021/04/27 04:09:12;;;;;;;6.68;4.47;;;;;;;;;;4971848;28;20059;-48
2021/04/27 04:11:37;;;;;;;6.25;4.25;;;;;;;;;;4973630;28;20126;-48
2021/04/27 04:14:03;;;;;;;4.95;3.63;;;;;;;;;;4977697;28;20174;-48
2021/04/27 04:16:28;;;;;;;6.55;4.85;;;;;;;;;;4975121;28;20479;-46
2021/04/27 04:18:54;;;;;;;6.35;4.05;;;;;;;;;;4974484;28;20042;-45
2021/04/27 04:21:19;;;;;;;15.63;4.35;;;;;;;;;;4976479;28;20022;-49
2021/04/27 04:23:46;;;;;;;12.93;4.70;;;;;;;;;;4973055;28;20533;-51
2021/04/27 04:26:11;;;;;;;9.25;5.63;;;;;;;;;;4974473;28;20029;-49
2021/04/27 04:28:37;;;;;;;6.90;4.80;;;;;;;;;;4973596;28;20112;-47
2021/04/27 04:31:02;;;;;;;11.10;6.03;;;;;;;;;;4975533;28;20165;-47
2021/04/27 04:33:27;;;;;;;7.85;4.57;;;;;;;;;;4974836;28;20077;-46
2021/04/27 04:35:53;;;;;;;8.70;4.53;;;;;;;;;;4974160;28;20027;-48
2021/04/27 04:38:18;;;;;;;7.97;4.05;;;;;;;;;;4974752;28;20030;-50
2021/04/27 04:40:44;;;;;;;15.63;3.25;;;;;;;;;;4973865;28;20025;-49
2021/04/27 04:43:10;;;;;;;8.30;3.10;;;;;;;;;;4974415;28;20033;-50
2021/04/27 04:45:35;;;;;;;4.85;2.90;;;;;;;;;;4975278;28;20031;-51
2021/04/27 04:48:01;;;;;;;10.05;4.35;;;;;;;;;;4973405;28;20080;-49
2021/04/27 04:50:26;;;;;;;7.97;3.33;;;;;;;;;;4976034;28;20467;-48
2021/04/27 04:52:51;;;;;;;8.10;6.30;;;;;;;;;;4976028;28;20031;-49
2021/04/27 04:55:17;;;;;;;4.70;4.10;;;;;;;;;;4974207;28;20031;-47
2021/04/27 04:57:42;;;;;;;6.63;3.75;;;;;;;;;;4975860;28;20067;-48
2021/04/27 05:00:09;;;;;;;4.68;4.28;;;;;;;;;;4971299;28;20479;-49
2021/04/27 05:02:35;;;;;;;5.88;4.20;;;;;;;;;;4973109;28;20025;-47
2021/04/27 05:05:00;;;;;;;5.90;3.63;;;;;;;;;;4973018;28;20026;-47
2021/04/27 05:07:27;;;;;;;10.90;5.00;;;;;;;;;;4972405;28;20059;-50
2021/04/27 05:09:53;;;;;;;8.65;3.88;;;;;;;;;;4973845;28;20046;-51
2021/04/27 05:12:18;;;;;;;7.25;4.25;;;;;;;;;;4973005;28;20093;-48
2021/04/27 05:14:44;;;;;;;6.15;3.25;;;;;;;;;;4973793;28;20041;-48
2021/04/27 05:17:10;;;;;;;12.77;7.55;;;;;;;;;;4978897;28;20015;-59
2021/04/27 05:19:36;;;;;;;13.45;6.15;;;;;;;;;;4975466;28;20023;-59
2021/04/27 05:22:02;;;;;;;8.88;5.45;;;;;;;;;;4973838;28;20110;-59
2021/04/27 05:24:28;;;;;;;9.07;5.30;;;;;;;;;;4973919;28;20071;-59
2021/04/27 05:26:54;;;;;;;9.82;5.07;;;;;;;;;;4972862;28;20096;-59
2021/04/27 05:29:19;;;;;;;6.90;4.75;;;;;;;;;;4972638;28;20054;-59
2021/04/27 05:31:44;;;;;;;7.95;4.85;;;;;;;;;;4977374;28;20113;-59
2021/04/27 05:34:10;;;;;;;13.05;4.65;;;;;;;;;;4958541;28;20034;-59
2021/04/27 05:36:35;;;;;;;13.82;5.10;;;;;;;;;;4972169;28;20032;-59
2021/04/27 05:39:01;;;;;;;8.38;3.63;;;;;;;;;;4975400;28;20360;-59
2021/04/27 05:41:26;;;;;;;17.60;5.20;;;;;;;;;;4975238;28;20058;-59
2021/04/27 05:43:51;;;;;;;4.90;4.10;;;;;;;;;;4973051;28;20555;-59
2021/04/27 05:46:17;;;;;;;10.63;4.53;;;;;;;;;;4972894;28;20038;-60
2021/04/27 05:48:42;;;;;;;8.05;4.88;;;;;;;;;;4973406;28;20118;-59
2021/04/27 05:51:07;;;;;;;5.97;4.78;;;;;;;;;;4972342;28;20161;-59
2021/04/27 05:53:33;;;;;;;12.02;5.50;;;;;;;;;;4974257;28;20117;-60
2021/04/27 05:55:58;;;;;;;5.07;4.53;;;;;;;;;;4975123;28;20023;-59
2021/04/27 05:58:23;;;;;;;13.25;5.43;;;;;;;;;;4974319;28;20118;-59
2021/04/27 06:00:49;;;;;;;12.15;5.00;;;;;;;;;;4972986;28;20455;-59
2021/04/27 06:03:14;;;;;;;9.60;8.20;;;;;;;;;;4971182;28;20113;-59
2021/04/27 06:05:40;;;;;;;7.13;4.90;;;;;;;;;;4972270;28;20062;-60
2021/04/27 06:08:05;;;;;;;9.38;5.43;;;;;;;;;;4976850;28;20061;-60
2021/04/27 06:10:30;;;;;;;7.10;4.80;;;;;;;;;;4975910;28;20019;-59
2021/04/27 06:12:56;;;;;;;10.52;5.40;;;;;;;;;;4972059;28;20031;-59
2021/04/27 06:15:21;;;;;;;5.55;4.20;;;;;;;;;;4973127;28;20023;-60
2021/04/27 06:17:46;;;;;;;7.93;4.97;;;;;;;;;;4973950;28;20424;-60
2021/04/27 06:20:12;;;;;;;8.07;5.53;;;;;;;;;;4971117;28;20496;-60
2021/04/27 06:22:37;;;;;;;10.02;5.50;;;;;;;;;;4971318;28;20062;-60
2021/04/27 06:25:04;;;;;;;12.40;5.20;;;;;;;;;;4972189;28;20109;-59
2021/04/27 06:27:29;;;;;;;11.38;4.80;;;;;;;;;;4971388;28;20181;-60
2021/04/27 06:29:56;;;;;;;13.98;6.38;;;;;;;;;;4975982;28;20051;-60
2021/04/27 06:32:22;;;;;;;10.27;5.68;;;;;;;;;;4971425;28;20031;-60
2021/04/27 06:34:47;;;;;;;9.35;4.95;;;;;;;;;;4972020;28;20046;-61
2021/04/27 06:37:12;;;;;;;10.13;6.40;;;;;;;;;;4970301;28;20033;-60
2021/04/27 06:39:38;;;;;;;8.00;6.22;;;;;;;;;;4959433;28;20129;-59
2021/04/27 06:42:04;;;;;;;9.38;6.85;;;;;;;;;;4972661;28;20396;-61
2021/04/27 06:44:29;;;;;;;20.00;7.95;;;;;;;;;;4971494;28;20030;-60
2021/04/27 06:46:54;;;;;;;8.57;6.00;;;;;;;;;;4970818;28;20070;-61
2021/04/27 06:49:20;;;;;;;8.30;7.50;;;;;;;;;;4971852;28;20503;-61
2021/04/27 06:51:45;;;;;;;12.20;7.45;;;;;;;;;;4970972;28;20045;-60
2021/04/27 06:54:10;;;;;;;13.73;8.02;;;;;;;;;;4973370;28;20463;-36
2021/04/27 06:56:35;;;;;;;10.38;5.85;;;;;;;;;;4973964;28;20030;-36
2021/04/27 06:59:01;;;;;;;12.93;8.07;;;;;;;;;;4973825;28;20027;-36
2021/04/27 07:01:26;;;;;;;19.70;8.98;;;;;;;;;;4973063;28;20019;-36
2021/04/27 07:03:51;;;;;;;20.50;9.48;;;;;;;;;;4973183;28;20440;-36
2021/04/27 07:06:17;;;;;;;9.40;8.50;;;;;;;;;;4973249;28;20034;-36
2021/04/27 07:08:42;;;;;;;16.00;11.93;;;;;;;;;;4974642;28;20533;-37
2021/04/27 07:11:09;;;;;;;11.65;8.10;;;;;;;;;;4969984;28;20463;-36
2021/04/27 07:13:35;;;;;;;14.50;8.10;;;;;;;;;;4970508;28;20038;-36
2021/04/27 07:16:00;;;;;;;17.50;8.65;;;;;;;;;;4972012;28;20030;-60
2021/04/27 07:18:25;;;;;;;8.38;6.70;;;;;;;;;;4970154;28;20431;-60
2021/04/27 07:20:51;;;;;;;10.30;7.88;;;;;;;;;;4970632;28;20041;-60
2021/04/27 07:23:16;;;;;;;9.57;6.20;;;;;;;;;;4976474;28;20026;-62
2021/04/27 07:25:42;;;;;;;22.23;8.52;;;;;;;;;;4973951;28;20101;-59
2021/04/27 07:28:07;;;;;;;24.83;8.45;;;;;;;;;;4970448;28;20031;-66
2021/04/27 07:30:33;;;;;;;13.13;9.02;;;;;;;;;;4973584;28;20043;-58
2021/04/27 07:32:59;;;;;;;9.18;8.27;;;;;;;;;;4970749;28;20029;-59
2021/04/27 07:35:27;;;;;;;9.27;8.38;;;;;;;;;;4970705;28;20065;-61
2021/04/27 07:37:55;;;;;;;13.27;9.70;;;;;;;;;;4974557;28;20022;-63
2021/04/27 07:40:21;;;;;;;13.90;6.75;;;;;;;;;;4968565;28;20110;-65
2021/04/27 07:42:46;;;;;;;10.80;7.20;;;;;;;;;;4956492;28;20019;-60
2021/04/27 07:45:13;;;;;;;10.30;8.13;;;;;;;;;;4972743;28;20063;-58
2021/04/27 07:47:39;;;;;;;21.60;8.85;;;;;;;;;;4972001;28;20031;-54
2021/04/27 07:50:05;;;;;;;8.35;6.10;;;;;;;;;;4970572;28;20094;-59
2021/04/27 07:52:31;;;;;;;13.50;7.80;;;;;;;;;;4971313;28;20042;-54
2021/04/27 07:54:57;;;;;;;6.72;6.03;;;;;;;;;;4976486;28;20456;-56
2021/04/27 07:57:22;;;;;;;13.90;8.18;;;;;;;;;;4970013;28;20057;-56
2021/04/27 07:59:47;;;;;;;14.63;11.80;;;;;;;;;;4970585;28;20557;-56
2021/04/27 08:02:13;;;;;;;18.90;9.30;;;;;;;;;;4969834;28;20041;-56
2021/04/27 08:04:38;;;;;;;12.98;8.88;;;;;;;;;;4969956;28;20439;-55
2021/04/27 08:07:03;;;;;;;15.38;9.57;;;;;;;;;;4976410;28;20347;-54
2021/04/27 08:09:29;;;;;;;12.65;7.38;;;;;;;;;;4971873;28;20613;-56
2021/04/27 08:11:54;;;;;;;14.07;10.45;;;;;;;;;;4970732;28;20098;-53
2021/04/27 08:14:20;;;;;;;19.23;10.10;;;;;;;;;;4972249;28;20037;-53
2021/04/27 08:16:45;;;;;;;17.98;15.68;;;;;;;;;;4971402;28;20033;-56
2021/04/27 08:19:11;;;;;;;10.32;9.30;;;;;;;;;;4970797;28;20546;-55
2021/04/27 08:21:37;;;;;;;10.13;9.13;;;;;;;;;;4970908;28;20041;-53
2021/04/27 08:24:03;;;;;;;11.43;8.82;;;;;;;;;;4974925;28;20131;-53
2021/04/27 08:26:28;;;;;;;15.75;8.68;;;;;;;;;;4972883;28;20106;-56
2021/04/27 08:28:53;;;;;;;14.45;13.05;;;;;;;;;;4973889;28;20470;-55
2021/04/27 08:31:19;;;;;;;15.88;8.82;;;;;;;;;;4972150;28;20159;-55
2021/04/27 08:33:44;;;;;;;11.68;9.30;;;;;;;;;;4974410;28;20037;-54
2021/04/27 08:36:09;;;;;;;16.00;9.48;;;;;;;;;;4970863;28;20023;-57
2021/04/27 08:38:35;;;;;;;9.38;6.53;;;;;;;;;;4970162;28;20479;-55
2021/04/27 08:41:01;;;;;;;9.65;6.72;;;;;;;;;;4970202;28;20031;-56
2021/04/27 08:43:26;;;;;;;15.77;11.80;;;;;;;;;;4970393;28;20026;-55
2021/04/27 08:45:52;;;;;;;21.05;16.00;;;;;;;;;;4970731;28;20034;-56
2021/04/27 08:48:17;;;;;;;29.10;19.92;;;;;;;;;;4970778;28;20407;-55
2021/04/27 08:50:43;;;;;;;24.67;15.27;;;;;;;;;;4969250;28;20633;-56
2021/04/27 08:53:09;;;;;;;16.25;12.40;;;;;;;;;;4970662;28;20656;-56
2021/04/27 08:55:35;;;;;;;9.70;7.82;;;;;;;;;;4969075;28;20431;-56
2021/04/27 08:58:03;;;;;;;12.32;8.18;;;;;;;;;;4959222;28;20069;-58
2021/04/27 09:00:28;;;;;;;10.25;5.78;;;;;;;;;;4971387;28;20034;-56
2021/04/27 09:02:57;;;;;;;15.88;5.68;;;;;;;;;;4973414;28;20034;-56
2021/04/27 09:05:24;;;;;;;10.68;3.70;;;;;;;;;;4971331;28;20038;-57
2021/04/27 09:07:51;;;;;;;7.35;5.75;;;;;;;;;;4972061;28;20388;-57
2021/04/27 09:10:17;;;;;;;6.78;5.50;;;;;;;;;;4972085;28;20593;-56
2021/04/27 09:12:49;;;;;;;6.70;5.22;;;;;;;;;;4970162;28;20058;-57
2021/04/27 09:15:28;;;;;;;15.40;8.55;;;;;;;;;;4972129;28;20073;-57
2021/04/27 09:17:54;;;;;;;11.85;6.75;;;;;;;;;;4969965;28;20023;-57
2021/04/27 09:20:20;;;;;;;13.10;5.50;;;;;;;;;;4970336;28;20038;-45
2021/04/27 09:22:45;;;;;;;6.60;4.03;;;;;;;;;;4969028;28;20462;-48
2021/04/27 09:25:11;;;;;;;9.18;6.10;;;;;;;;;;4970612;28;20109;-42
2021/04/27 09:27:42;;;;;;;12.07;7.45;;;;;;;;;;4971284;28;20035;-42
2021/04/27 09:30:26;;;;;;;10.77;4.75;;;;;;;;;;4970654;28;20093;-45
2021/04/27 09:32:53;;;;;;;5.53;4.32;;;;;;;;;;4971297;28;20145;-58
2021/04/27 09:35:40;;;;;;;9.65;6.63;;;;;;;;;;4974120;28;20052;-58
2021/04/27 09:38:11;;;;;;;17.42;9.15;;;;;;;;;;4975150;28;20037;-58
2021/04/27 09:40:37;;;;;;;;;;;;;;;;;;4974089;28;20407;-59
2021/04/27 09:43:05;;;;;;;15.33;5.80;;;;;;;;;;4969687;28;19909;-59
2021/04/27 09:45:44;;;;;;;15.70;5.88;;;;;;;;;;4970860;28;20035;-58
2021/04/27 09:48:09;;;;;;;6.28;4.35;;;;;;;;;;4969647;28;20085;-58
2021/04/27 09:50:35;;;;;;;7.18;4.63;;;;;;;;;;4970678;28;20399;-57
2021/04/27 09:53:01;;;;;;;6.50;3.92;;;;;;;;;;4970665;28;20077;-58
2021/04/27 09:55:30;;;;;;;7.28;4.85;;;;;;;;;;4970113;28;20039;-58
2021/04/27 09:57:56;;;;;;;3.95;2.28;;;;;;;;;;4972636;28;20015;-57
2021/04/27 10:00:28;;;;;;;4.55;3.45;;;;;;;;;;4973515;28;20403;-55
2021/04/27 10:02:55;;;;;;;7.35;3.28;;;;;;;;;;4969318;28;20149;-56
2021/04/27 10:05:20;;;;;;;8.23;4.88;;;;;;;;;;4968498;28;20263;-55
2021/04/27 10:07:46;;;;;;;5.47;2.17;;;;;;;;;;4955226;28;20527;-56
2021/04/27 10:10:13;;;;;;;6.88;2.85;;;;;;;;;;4951869;28;20396;-53
2021/04/27 10:12:39;;;;;;;16.20;3.83;;;;;;;;;;4950580;28;20059;-55
2021/04/27 10:15:05;;;;;;;7.05;3.67;;;;;;;;;;4950147;28;20127;-55
2021/04/27 10:17:30;;;;;;;10.93;5.68;;;;;;;;;;4951644;28;20058;-54
2021/04/27 10:19:57;;;;;;;8.18;5.45;;;;;;;;;;4949507;28;20499;-53
2021/04/27 10:22:25;;;;;;;7.65;3.72;;;;;;;;;;4949745;28;20027;-56
2021/04/27 10:24:50;;;;;;;10.35;5.85;;;;;;;;;;4950893;28;20042;-55
2021/04/27 10:27:16;;;;;;;5.97;3.50;;;;;;;;;;4947540;28;20043;-53
2021/04/27 10:29:41;;;;;;;4.50;4.05;;;;;;;;;;4951517;28;20031;-53
2021/04/27 10:32:09;;;;;;;8.70;4.60;;;;;;;;;;4950870;28;20392;-57
2021/04/27 10:34:34;;;;;;;6.85;2.83;;;;;;;;;;4950609;28;20035;-55
2021/04/27 10:37:00;;;;;;;5.97;2.03;;;;;;;;;;4952418;28;20034;-55
2021/04/27 10:39:47;;;;;;;5.13;1.67;;;;;;;;;;4951283;28;20031;-54
2021/04/27 10:42:17;;;;;;;8.65;4.20;;;;;;;;;;4947013;28;20032;-52
2021/04/27 10:44:49;;;;;;;5.75;2.30;;;;;;;;;;4950433;28;20399;-55
2021/04/27 10:47:16;;;;;;;4.90;3.92;;;;;;;;;;4948128;28;20503;-54
2021/04/27 10:49:43;;;;;;;7.38;2.45;;;;;;;;;;4947508;28;20075;-53
2021/04/27 10:52:25;;;;;;;3.00;2.70;;;;;;;;;;4952470;28;20023;-56
2021/04/27 10:54:51;;;;;;;5.25;2.60;;;;;;;;;;4949384;28;20094;-55
2021/04/27 10:57:17;;;;;;;16.85;2.60;;;;;;;;;;4947891;28;20051;-53
2021/04/27 10:59:59;;;;;;;5.22;4.07;;;;;;;;;;4954273;28;20043;-53
2021/04/27 11:02:29;;;;;;;8.13;3.45;;;;;;;;;;4951548;28;20110;-55
2021/04/27 11:04:55;;;;;;;6.47;3.85;;;;;;;;;;4946775;28;20023;-58
2021/04/27 11:07:21;;;;;;;3.40;1.92;;;;;;;;;;4952152;28;20030;-58
2021/04/27 11:10:16;;;;;;;5.50;2.70;;;;;;;;;;4960930;28;20042;-58
2021/04/27 11:12:44;;;;;;;5.70;3.92;;;;;;;;;;4950787;28;20078;-58
2021/04/27 11:15:11;;;;;;;2.63;1.30;;;;;;;;;;4967912;28;20038;-57
2021/04/27 11:17:39;;;;;;;1.90;1.55;;;;;;;;;;4971632;28;20096;-57
2021/04/27 11:20:09;;;;;;;1.65;1.08;;;;;;;;;;4974482;28;20041;-56
2021/04/27 11:22:36;;;;;;;2.83;2.08;;;;;;;;;;4977899;28;20026;-56
2021/04/27 11:25:08;;;;;;;5.75;2.53;;;;;;;;;;4976642;28;20073;-38
2021/04/27 11:27:37;;;;;;;7.35;3.03;;;;;;;;;;4977829;28;20117;-46
2021/04/27 11:30:13;;;;;;;4.65;3.40;;;;;;;;;;4975401;28;20058;-47
2021/04/27 11:32:39;;;;;;;3.47;2.28;;;;;;;;;;4973888;28;20027;-46
2021/04/27 11:35:15;;;;;;;5.32;3.10;;;;;;;;;;4974097;28;20034;-46
2021/04/27 11:37:51;;;;;;;5.53;3.15;;;;;;;;;;4976830;28;20034;-50
2021/04/27 11:40:16;;;;;;;3.70;2.60;;;;;;;;;;4974142;28;20053;-48
2021/04/27 11:42:41;;;;;;;5.43;2.80;;;;;;;;;;4979808;28;20054;-50
2021/04/27 11:45:09;;;;;;;9.02;4.65;;;;;;;;;;4973082;28;20046;-52
2021/04/27 11:47:35;;;;;;;5.63;4.05;;;;;;;;;;4973942;28;20161;-48
2021/04/27 11:50:01;;;;;;;7.95;4.97;;;;;;;;;;4977491;28;20495;-47
2021/04/27 11:52:45;;;;;;;10.13;4.57;;;;;;;;;;4977896;28;20081;-45
2021/04/27 11:55:12;;;;;;;9.55;5.32;;;;;;;;;;4975133;28;20058;-49
2021/04/27 11:57:42;;;;;;;10.82;4.78;;;;;;;;;;4972178;28;20049;-50
2021/04/27 12:00:07;;;;;;;6.40;2.95;;;;;;;;;;4973503;28;20121;-51
2021/04/27 12:02:32;;;;;;;9.00;3.50;;;;;;;;;;4975541;28;20525;-48
2021/04/27 12:04:59;;;;;;;10.88;4.43;;;;;;;;;;4974472;28;20037;-46
2021/04/27 12:07:27;;;;;;;17.77;3.80;;;;;;;;;;4972408;28;20023;-49
2021/04/27 12:09:54;;;;;;;19.15;3.55;;;;;;;;;;4974044;28;20027;-47
2021/04/27 12:12:20;;;;;;;4.95;3.40;;;;;;;;;;4974922;28;20035;-48
2021/04/27 12:14:51;;;;;;;9.73;3.00;;;;;;;;;;4974214;28;20487;-49
2021/04/27 12:17:24;;;;;;;6.60;3.38;;;;;;;;;;4974056;28;20026;-45
2021/04/27 12:20:09;;;;;;;12.50;3.08;;;;;;;;;;4974237;28;20031;-49
2021/04/27 12:22:42;;;;;;;7.10;4.40;;;;;;;;;;4973190;28;20038;-44
2021/04/27 12:25:15;;;;;;;4.75;3.45;;;;;;;;;;4973078;28;20027;-46
2021/04/27 12:27:41;;;;;;;6.55;4.30;;;;;;;;;;4972642;28;20110;-46
2021/04/27 12:30:09;;;;;;;6.70;3.67;;;;;;;;;;4969497;28;20547;-52
2021/04/27 12:32:40;;;;;;;7.25;2.45;;;;;;;;;;4971091;28;20027;-52
2021/04/27 12:35:09;;;;;;;4.50;3.00;;;;;;;;;;4971337;28;20034;-46
2021/04/27 12:37:41;;;;;;;3.30;2.58;;;;;;;;;;4969708;28;20077;-46
2021/04/27 12:40:28;;;;;;;6.95;3.03;;;;;;;;;;4969891;28;20062;-48
2021/04/27 12:43:01;;;;;;;3.25;2.33;;;;;;;;;;4969433;28;20061;-48
2021/04/27 12:45:29;;;;;;;10.82;2.97;;;;;;;;;;4971629;28;20145;-47
2021/04/27 12:48:07;;;;;;;3.72;2.08;;;;;;;;;;4963241;28;20058;-48
2021/04/27 12:50:33;;;;;;;5.15;3.83;;;;;;;;;;4973377;28;20185;-45
2021/04/27 12:53:03;;;;;;;3.88;2.22;;;;;;;;;;4976442;28;20539;-47
2021/04/27 12:55:38;;;;;;;5.53;2.47;;;;;;;;;;4975354;28;20049;-50
2021/04/27 12:58:08;;;;;;;6.65;3.90;;;;;;;;;;4972703;28;20142;-46
2021/04/27 13:00:33;;;;;;;7.45;4.95;;;;;;;;;;4975916;28;20027;-47
2021/04/27 13:03:12;;;;;;;11.02;5.03;;;;;;;;;;4976216;28;20022;-48
2021/04/27 13:05:38;;;;;;;3.22;2.03;;;;;;;;;;4976507;28;20544;-48
2021/04/27 13:08:13;;;;;;;3.58;2.30;;;;;;;;;;4968195;28;20108;-49
2021/04/27 13:10:41;;;;;;;6.32;2.17;;;;;;;;;;4968123;28;20046;-45
2021/04/27 13:13:31;;;;;;;4.13;1.92;;;;;;;;;;4969240;28;20137;-47
2021/04/27 13:16:00;;;;;;;3.20;2.08;;;;;;;;;;4967494;28;20030;-46
2021/04/27 13:18:29;;;;;;;4.38;2.67;;;;;;;;;;4968170;28;20030;-48
2021/04/27 13:20:56;;;;;;;10.73;2.22;;;;;;;;;;4972036;28;20038;-47
2021/04/27 13:23:28;;;;;;;3.47;2.80;;;;;;;;;;4971283;28;20086;-47
2021/04/27 13:26:20;;;;;;;12.93;4.60;;;;;;;;;;4970232;28;20038;-45
2021/04/27 13:28:48;;;;;;;1.90;1.38;;;;;;;;;;4964767;28;20039;-48
2021/04/27 13:31:26;;;;;;;14.57;5.25;;;;;;;;;;4967803;28;20070;-47
2021/04/27 13:33:51;;;;;;;7.25;4.07;;;;;;;;;;4968596;28;20045;-47
2021/04/27 13:36:19;;;;;;;4.47;3.45;;;;;;;;;;4970962;28;20491;-51
2021/04/27 13:38:45;;;;;;;4.78;2.67;;;;;;;;;;4967243;28;20243;-49
2021/04/27 13:41:11;;;;;;;7.43;2.05;;;;;;;;;;4967509;28;20067;-47
2021/04/27 13:43:37;;;;;;;6.47;3.13;;;;;;;;;;4969472;28;20048;-51
2021/04/27 13:46:03;;;;;;;8.10;4.28;;;;;;;;;;4970060;28;20038;-50
2021/04/27 13:48:29;;;;;;;9.48;4.38;;;;;;;;;;4967613;28;20578;-52
2021/04/27 13:50:57;;;;;;;24.75;3.83;;;;;;;;;;4971719;28;20149;-48
2021/04/27 13:53:23;;;;;;;13.93;2.70;;;;;;;;;;4970302;28;20035;-52
2021/04/27 13:55:49;;;;;;;7.28;3.67;;;;;;;;;;4968558;28;20093;-51
2021/04/27 13:58:14;;;;;;;2.88;1.52;;;;;;;;;;4972718;28;20019;-50
2021/04/27 14:00:43;;;;;;;5.03;2.35;;;;;;;;;;4968767;28;20019;-48
2021/04/27 14:03:09;;;;;;;4.60;3.25;;;;;;;;;;4967660;28;20069;-51
2021/04/27 14:05:34;;;;;;;6.13;4.05;;;;;;;;;;4968382;28;20534;-52
2021/04/27 14:08:00;;;;;;;4.57;2.78;;;;;;;;;;4967050;28;20353;-47
2021/04/27 14:10:28;;;;;;;5.50;2.42;;;;;;;;;;4970358;28;20096;-47
2021/04/27 14:12:54;;;;;;;5.28;2.47;;;;;;;;;;4967869;28;20727;-47
2021/04/27 14:15:20;;;;;;;12.90;3.85;;;;;;;;;;4967336;28;20034;-45
2021/04/27 14:17:46;;;;;;;3.90;1.90;;;;;;;;;;4968209;28;20027;-45
2021/04/27 14:20:13;;;;;;;6.32;2.03;;;;;;;;;;4966806;28;20050;-47
2021/04/27 14:22:38;;;;;;;11.65;4.35;;;;;;;;;;4968202;28;20031;-47
2021/04/27 14:25:05;;;;;;;3.72;2.15;;;;;;;;;;4967476;28;20125;-45
2021/04/27 14:27:31;;;;;;;1.92;1.50;;;;;;;;;;4967751;28;20034;-46
2021/04/27 14:29:56;;;;;;;6.65;2.47;;;;;;;;;;4963837;28;20772;-44
2021/04/27 14:32:21;;;;;;;3.92;2.85;;;;;;;;;;4961899;28;20031;-50
2021/04/27 14:34:47;;;;;;;9.23;3.88;;;;;;;;;;4968745;28;20066;-47
2021/04/27 14:37:13;;;;;;;4.80;2.17;;;;;;;;;;4965323;28;20376;-46